sensor_id;sensor_type;location;lat;lon;timestamp;temperature;humidity
6666;DHT22;3369;49.906;8.598;2023-07-22T00:00:44;16.60;99.90
6666;DHT22;3369;49.906;8.598;2023-07-22T00:03:09;16.60;99.90
6666;DHT22;3369;49.906;8.598;2023-07-22T00:05:35;16.50;99.90
6666;DHT22;3369;49.906;8.598;2023-07-22T00:08:01;16.50;99.90
6666;DHT22;3369;49.906;8.598;2023-07-22T00:10:26;16.50;99.90
6666;DHT22;3369;49.906;8.598;2023-07-22T00:12:52;16.50;99.90
6666;DHT22;3369;49.906;8.598;2023-07-22T00:15:17;16.50;99.90
6666;DHT22;3369;49.906;8.598;2023-07-22T00:17:43;16.50;99.90
6666;DHT22;3369;49.906;8.598;2023-07-22T00:20:09;16.50;99.90
6666;DHT22;3369;49.906;8.598;2023-07-22T00:22:39;16.50;99.90
6666;DHT22;3369;49.906;8.598;2023-07-22T00:25:12;16.50;99.90
6666;DHT22;3369;49.906;8.598;2023-07-22T00:27:39;16.50;99.90
6666;DHT22;3369;49.906;8.598;2023-07-22T00:30:08;16.40;99.90
6666;DHT22;3369;49.906;8.598;2023-07-22T00:32:34;16.40;99.90
6666;DHT22;3369;49.906;8.598;2023-07-22T00:35:06;16.30;99.90
6666;DHT22;3369;49.906;8.598;2023-07-22T00:37:32;16.30;99.90
6666;DHT22;3369;49.906;8.598;2023-07-22T00:39:58;16.30;99.90
6666;DHT22;3369;49.906;8.598;2023-07-22T00:42:24;16.20;99.90
6666;DHT22;3369;49.906;8.598;2023-07-22T00:44:50;16.10;99.90
6666;DHT22;3369;49.906;8.598;2023-07-22T00:47:16;16.10;99.90
6666;DHT22;3369;49.906;8.598;2023-07-22T00:49:43;16.10;99.90
6666;DHT22;3369;49.906;8.598;2023-07-22T00:52:09;16.00;99.90
6666;DHT22;3369;49.906;8.598;2023-07-22T00:54:34;16.00;99.90
6666;DHT22;3369;49.906;8.598;2023-07-22T00:57:00;16.00;99.90
6666;DHT22;3369;49.906;8.598;2023-07-22T00:59:26;15.90;99.90
6666;DHT22;3369;49.906;8.598;2023-07-22T01:01:52;15.80;99.90
6666;DHT22;3369;49.906;8.598;2023-07-22T01:04:19;15.80;99.90
6666;DHT22;3369;49.906;8.598;2023-07-22T01:06:45;15.80;99.90
6666;DHT22;3369;49.906;8.598;2023-07-22T01:09:12;15.70;99.90
6666;DHT22;3369;49.906;8.598;2023-07-22T01:11:38;15.70;99.90
6666;DHT22;3369;49.906;8.598;2023-07-22T01:14:04;15.70;99.90
6666;DHT22;3369;49.906;8.598;2023-07-22T01:16:30;15.60;99.90
6666;DHT22;3369;49.906;8.598;2023-07-22T01:18:56;15.60;99.90
6666;DHT22;3369;49.906;8.598;2023-07-22T01:21:23;15.50;99.90
6666;DHT22;3369;49.906;8.598;2023-07-22T01:23:50;15.50;99.90
6666;DHT22;3369;49.906;8.598;2023-07-22T01:26:16;15.40;99.90
6666;DHT22;3369;49.906;8.598;2023-07-22T01:28:43;15.30;99.90
6666;DHT22;3369;49.906;8.598;2023-07-22T01:31:09;15.30;99.90
6666;DHT22;3369;49.906;8.598;2023-07-22T01:33:34;15.20;99.90
6666;DHT22;3369;49.906;8.598;2023-07-22T01:36:00;15.20;99.90
6666;DHT22;3369;49.906;8.598;2023-07-22T01:38:26;15.20;99.90
6666;DHT22;3369;49.906;8.598;2023-07-22T01:40:51;15.10;99.90
6666;DHT22;3369;49.906;8.598;2023-07-22T01:43:17;15.10;99.90
6666;DHT22;3369;49.906;8.598;2023-07-22T01:45:42;15.00;99.90
6666;DHT22;3369;49.906;8.598;2023-07-22T01:48:08;15.00;99.90
6666;DHT22;3369;49.906;8.598;2023-07-22T01:50:34;14.90;99.90
6666;DHT22;3369;49.906;8.598;2023-07-22T01:53:00;14.90;99.90
6666;DHT22;3369;49.906;8.598;2023-07-22T01:55:25;14.80;99.90
6666;DHT22;3369;49.906;8.598;2023-07-22T01:57:51;14.80;99.90
6666;DHT22;3369;49.906;8.598;2023-07-22T02:00:17;14.70;99.90
6666;DHT22;3369;49.906;8.598;2023-07-22T02:02:42;14.70;99.90
6666;DHT22;3369;49.906;8.598;2023-07-22T02:05:09;14.60;99.90
6666;DHT22;3369;49.906;8.598;2023-07-22T02:07:38;14.60;99.90
6666;DHT22;3369;49.906;8.598;2023-07-22T02:10:04;14.60;99.90
6666;DHT22;3369;49.906;8.598;2023-07-22T02:12:31;14.50;99.90
6666;DHT22;3369;49.906;8.598;2023-07-22T02:14:56;14.50;99.90
6666;DHT22;3369;49.906;8.598;2023-07-22T02:17:22;14.50;99.90
6666;DHT22;3369;49.906;8.598;2023-07-22T02:19:49;14.50;99.90
6666;DHT22;3369;49.906;8.598;2023-07-22T02:22:14;14.40;99.90
6666;DHT22;3369;49.906;8.598;2023-07-22T02:24:40;14.40;99.90
6666;DHT22;3369;49.906;8.598;2023-07-22T02:27:06;14.40;99.90
6666;DHT22;3369;49.906;8.598;2023-07-22T02:29:34;14.30;99.90
6666;DHT22;3369;49.906;8.598;2023-07-22T02:31:59;14.20;99.90
6666;DHT22;3369;49.906;8.598;2023-07-22T02:34:25;14.10;99.90
6666;DHT22;3369;49.906;8.598;2023-07-22T02:36:50;14.10;99.90
6666;DHT22;3369;49.906;8.598;2023-07-22T02:39:16;14.00;99.90
6666;DHT22;3369;49.906;8.598;2023-07-22T02:41:41;13.90;99.90
6666;DHT22;3369;49.906;8.598;2023-07-22T02:44:07;13.90;99.90
6666;DHT22;3369;49.906;8.598;2023-07-22T02:46:33;13.90;99.90
6666;DHT22;3369;49.906;8.598;2023-07-22T02:48:59;13.80;99.90
6666;DHT22;3369;49.906;8.598;2023-07-22T02:51:24;13.80;99.90
6666;DHT22;3369;49.906;8.598;2023-07-22T02:53:50;13.70;99.90
6666;DHT22;3369;49.906;8.598;2023-07-22T02:56:16;13.70;99.90
6666;DHT22;3369;49.906;8.598;2023-07-22T02:58:41;13.70;99.90
6666;DHT22;3369;49.906;8.598;2023-07-22T03:01:07;13.70;99.90
6666;DHT22;3369;49.906;8.598;2023-07-22T03:03:34;13.70;99.90
6666;DHT22;3369;49.906;8.598;2023-07-22T03:06:01;13.70;99.90
6666;DHT22;3369;49.906;8.598;2023-07-22T03:08:27;13.70;99.90
6666;DHT22;3369;49.906;8.598;2023-07-22T03:10:52;13.70;99.90
6666;DHT22;3369;49.906;8.598;2023-07-22T03:13:18;13.70;99.90
6666;DHT22;3369;49.906;8.598;2023-07-22T03:15:44;13.70;99.90
6666;DHT22;3369;49.906;8.598;2023-07-22T03:18:10;13.60;99.90
6666;DHT22;3369;49.906;8.598;2023-07-22T03:20:37;13.50;99.90
6666;DHT22;3369;49.906;8.598;2023-07-22T03:23:03;13.50;99.90
6666;DHT22;3369;49.906;8.598;2023-07-22T03:25:29;13.50;99.90
6666;DHT22;3369;49.906;8.598;2023-07-22T03:27:55;13.50;99.90
6666;DHT22;3369;49.906;8.598;2023-07-22T03:30:22;13.50;99.90
6666;DHT22;3369;49.906;8.598;2023-07-22T03:32:48;13.40;99.90
6666;DHT22;3369;49.906;8.598;2023-07-22T03:35:16;13.40;99.90
6666;DHT22;3369;49.906;8.598;2023-07-22T03:37:42;13.30;99.90
6666;DHT22;3369;49.906;8.598;2023-07-22T03:40:09;13.30;99.90
6666;DHT22;3369;49.906;8.598;2023-07-22T03:42:49;13.30;99.90
6666;DHT22;3369;49.906;8.598;2023-07-22T03:45:16;13.20;99.90
6666;DHT22;3369;49.906;8.598;2023-07-22T03:47:44;13.20;99.90
6666;DHT22;3369;49.906;8.598;2023-07-22T03:50:10;13.10;99.90
6666;DHT22;3369;49.906;8.598;2023-07-22T03:52:36;13.10;99.90
6666;DHT22;3369;49.906;8.598;2023-07-22T03:55:01;13.10;99.90
6666;DHT22;3369;49.906;8.598;2023-07-22T03:57:28;13.00;99.90
6666;DHT22;3369;49.906;8.598;2023-07-22T03:59:55;13.00;99.90
6666;DHT22;3369;49.906;8.598;2023-07-22T04:02:20;13.00;99.90
6666;DHT22;3369;49.906;8.598;2023-07-22T04:04:46;12.90;99.90
6666;DHT22;3369;49.906;8.598;2023-07-22T04:07:12;12.90;99.90
6666;DHT22;3369;49.906;8.598;2023-07-22T04:09:38;12.90;99.90
6666;DHT22;3369;49.906;8.598;2023-07-22T04:12:04;12.90;99.90
6666;DHT22;3369;49.906;8.598;2023-07-22T04:14:30;12.90;99.90
6666;DHT22;3369;49.906;8.598;2023-07-22T04:16:55;12.90;99.90
6666;DHT22;3369;49.906;8.598;2023-07-22T04:19:21;13.00;99.90
6666;DHT22;3369;49.906;8.598;2023-07-22T04:21:46;13.00;99.90
6666;DHT22;3369;49.906;8.598;2023-07-22T04:24:12;13.10;99.90
6666;DHT22;3369;49.906;8.598;2023-07-22T04:26:40;13.10;99.90
6666;DHT22;3369;49.906;8.598;2023-07-22T04:29:05;13.20;99.90
6666;DHT22;3369;49.906;8.598;2023-07-22T04:31:32;13.20;99.90
6666;DHT22;3369;49.906;8.598;2023-07-22T04:33:58;13.30;99.90
6666;DHT22;3369;49.906;8.598;2023-07-22T04:36:24;13.30;99.90
6666;DHT22;3369;49.906;8.598;2023-07-22T04:38:49;13.30;99.90
6666;DHT22;3369;49.906;8.598;2023-07-22T04:41:15;13.40;99.90
6666;DHT22;3369;49.906;8.598;2023-07-22T04:43:40;13.40;99.90
6666;DHT22;3369;49.906;8.598;2023-07-22T04:46:06;13.40;99.90
6666;DHT22;3369;49.906;8.598;2023-07-22T04:48:32;13.50;99.90
6666;DHT22;3369;49.906;8.598;2023-07-22T04:50:58;13.60;99.90
6666;DHT22;3369;49.906;8.598;2023-07-22T04:53:23;13.60;99.90
6666;DHT22;3369;49.906;8.598;2023-07-22T04:55:49;13.60;99.90
6666;DHT22;3369;49.906;8.598;2023-07-22T04:58:14;13.70;99.90
6666;DHT22;3369;49.906;8.598;2023-07-22T05:00:40;13.80;99.90
6666;DHT22;3369;49.906;8.598;2023-07-22T05:03:07;13.80;99.90
6666;DHT22;3369;49.906;8.598;2023-07-22T05:05:33;13.90;99.90
6666;DHT22;3369;49.906;8.598;2023-07-22T05:07:59;14.00;99.90
6666;DHT22;3369;49.906;8.598;2023-07-22T05:10:24;14.00;99.90
6666;DHT22;3369;49.906;8.598;2023-07-22T05:12:50;14.10;99.90
6666;DHT22;3369;49.906;8.598;2023-07-22T05:15:16;14.20;99.90
6666;DHT22;3369;49.906;8.598;2023-07-22T05:17:41;14.20;99.90
6666;DHT22;3369;49.906;8.598;2023-07-22T05:20:07;14.30;99.90
6666;DHT22;3369;49.906;8.598;2023-07-22T05:22:38;14.30;99.90
6666;DHT22;3369;49.906;8.598;2023-07-22T05:25:05;14.40;99.90
6666;DHT22;3369;49.906;8.598;2023-07-22T05:27:31;14.40;99.90
6666;DHT22;3369;49.906;8.598;2023-07-22T05:29:56;14.50;99.90
6666;DHT22;3369;49.906;8.598;2023-07-22T05:32:22;14.60;99.90
6666;DHT22;3369;49.906;8.598;2023-07-22T05:34:48;14.60;99.90
6666;DHT22;3369;49.906;8.598;2023-07-22T05:37:13;14.70;99.90
6666;DHT22;3369;49.906;8.598;2023-07-22T05:39:39;14.80;99.90
6666;DHT22;3369;49.906;8.598;2023-07-22T05:42:05;14.90;99.90
6666;DHT22;3369;49.906;8.598;2023-07-22T05:44:30;15.00;99.90
6666;DHT22;3369;49.906;8.598;2023-07-22T05:46:56;15.10;99.90
6666;DHT22;3369;49.906;8.598;2023-07-22T05:49:22;15.20;99.90
6666;DHT22;3369;49.906;8.598;2023-07-22T05:51:47;15.40;99.90
6666;DHT22;3369;49.906;8.598;2023-07-22T05:54:13;15.50;99.90
6666;DHT22;3369;49.906;8.598;2023-07-22T05:56:38;15.70;99.90
6666;DHT22;3369;49.906;8.598;2023-07-22T05:59:04;15.70;99.90
6666;DHT22;3369;49.906;8.598;2023-07-22T06:01:30;15.90;99.90
6666;DHT22;3369;49.906;8.598;2023-07-22T06:03:55;16.00;99.90
6666;DHT22;3369;49.906;8.598;2023-07-22T06:06:21;16.00;99.90
6666;DHT22;3369;49.906;8.598;2023-07-22T06:08:46;16.10;99.90
6666;DHT22;3369;49.906;8.598;2023-07-22T06:11:12;16.20;99.90
6666;DHT22;3369;49.906;8.598;2023-07-22T06:13:38;16.30;99.90
6666;DHT22;3369;49.906;8.598;2023-07-22T06:16:03;16.30;99.90
6666;DHT22;3369;49.906;8.598;2023-07-22T06:18:29;16.40;99.90
6666;DHT22;3369;49.906;8.598;2023-07-22T06:20:55;16.50;99.90
6666;DHT22;3369;49.906;8.598;2023-07-22T06:23:20;16.50;99.90
6666;DHT22;3369;49.906;8.598;2023-07-22T06:25:46;16.60;99.90
6666;DHT22;3369;49.906;8.598;2023-07-22T06:28:11;16.80;99.90
6666;DHT22;3369;49.906;8.598;2023-07-22T06:30:37;16.90;99.90
6666;DHT22;3369;49.906;8.598;2023-07-22T06:33:02;17.00;99.90
6666;DHT22;3369;49.906;8.598;2023-07-22T06:35:28;17.10;99.90
6666;DHT22;3369;49.906;8.598;2023-07-22T06:37:54;17.20;99.90
6666;DHT22;3369;49.906;8.598;2023-07-22T06:40:19;17.30;99.90
6666;DHT22;3369;49.906;8.598;2023-07-22T06:42:45;17.40;99.90
6666;DHT22;3369;49.906;8.598;2023-07-22T06:45:10;17.50;99.90
6666;DHT22;3369;49.906;8.598;2023-07-22T06:47:36;17.60;99.90
6666;DHT22;3369;49.906;8.598;2023-07-22T06:50:03;17.80;99.90
6666;DHT22;3369;49.906;8.598;2023-07-22T06:52:30;17.90;99.90
6666;DHT22;3369;49.906;8.598;2023-07-22T06:54:56;18.00;99.90
6666;DHT22;3369;49.906;8.598;2023-07-22T06:57:22;18.10;99.90
6666;DHT22;3369;49.906;8.598;2023-07-22T06:59:47;18.20;99.90
6666;DHT22;3369;49.906;8.598;2023-07-22T07:02:13;18.40;99.90
6666;DHT22;3369;49.906;8.598;2023-07-22T07:04:38;18.40;99.90
6666;DHT22;3369;49.906;8.598;2023-07-22T07:07:05;18.40;99.90
6666;DHT22;3369;49.906;8.598;2023-07-22T07:09:31;18.50;99.90
6666;DHT22;3369;49.906;8.598;2023-07-22T07:11:56;18.60;99.90
6666;DHT22;3369;49.906;8.598;2023-07-22T07:14:23;18.80;99.90
6666;DHT22;3369;49.906;8.598;2023-07-22T07:16:49;19.00;99.90
6666;DHT22;3369;49.906;8.598;2023-07-22T07:19:15;19.10;99.90
6666;DHT22;3369;49.906;8.598;2023-07-22T07:21:40;19.10;99.90
6666;DHT22;3369;49.906;8.598;2023-07-22T07:24:06;19.20;99.80
6666;DHT22;3369;49.906;8.598;2023-07-22T07:26:31;19.30;99.90
6666;DHT22;3369;49.906;8.598;2023-07-22T07:28:57;19.40;99.50
6666;DHT22;3369;49.906;8.598;2023-07-22T07:31:22;19.50;99.10
6666;DHT22;3369;49.906;8.598;2023-07-22T07:33:48;19.60;98.70
6666;DHT22;3369;49.906;8.598;2023-07-22T07:36:14;19.70;98.50
6666;DHT22;3369;49.906;8.598;2023-07-22T07:38:40;19.80;98.50
6666;DHT22;3369;49.906;8.598;2023-07-22T07:41:06;19.90;98.00
6666;DHT22;3369;49.906;8.598;2023-07-22T07:43:34;20.00;97.60
6666;DHT22;3369;49.906;8.598;2023-07-22T07:46:14;20.10;97.20
6666;DHT22;3369;49.906;8.598;2023-07-22T07:48:40;20.20;97.00
6666;DHT22;3369;49.906;8.598;2023-07-22T07:51:05;20.30;97.20
6666;DHT22;3369;49.906;8.598;2023-07-22T07:53:31;20.30;96.90
6666;DHT22;3369;49.906;8.598;2023-07-22T07:55:57;20.40;96.60
6666;DHT22;3369;49.906;8.598;2023-07-22T07:58:22;20.30;95.90
6666;DHT22;3369;49.906;8.598;2023-07-22T08:00:48;20.40;96.20
6666;DHT22;3369;49.906;8.598;2023-07-22T08:03:13;20.30;96.60
6666;DHT22;3369;49.906;8.598;2023-07-22T08:05:39;20.30;96.50
6666;DHT22;3369;49.906;8.598;2023-07-22T08:08:05;20.40;96.50
6666;DHT22;3369;49.906;8.598;2023-07-22T08:10:31;20.40;95.90
6666;DHT22;3369;49.906;8.598;2023-07-22T08:12:56;20.40;96.10
6666;DHT22;3369;49.906;8.598;2023-07-22T08:15:22;20.50;96.30
6666;DHT22;3369;49.906;8.598;2023-07-22T08:17:47;20.50;95.80
6666;DHT22;3369;49.906;8.598;2023-07-22T08:20:13;20.50;95.80
6666;DHT22;3369;49.906;8.598;2023-07-22T08:22:38;20.50;95.80
6666;DHT22;3369;49.906;8.598;2023-07-22T08:25:04;20.50;95.60
6666;DHT22;3369;49.906;8.598;2023-07-22T08:27:30;20.50;95.50
6666;DHT22;3369;49.906;8.598;2023-07-22T08:29:56;20.60;95.60
6666;DHT22;3369;49.906;8.598;2023-07-22T08:32:21;20.70;94.70
6666;DHT22;3369;49.906;8.598;2023-07-22T08:34:47;20.80;94.50
6666;DHT22;3369;49.906;8.598;2023-07-22T08:37:12;20.90;94.20
6666;DHT22;3369;49.906;8.598;2023-07-22T08:39:38;21.00;93.80
6666;DHT22;3369;49.906;8.598;2023-07-22T08:42:04;21.00;93.50
6666;DHT22;3369;49.906;8.598;2023-07-22T08:44:32;21.10;93.80
6666;DHT22;3369;49.906;8.598;2023-07-22T08:47:02;21.20;93.90
6666;DHT22;3369;49.906;8.598;2023-07-22T08:49:30;21.30;93.90
6666;DHT22;3369;49.906;8.598;2023-07-22T08:51:56;21.30;93.00
6666;DHT22;3369;49.906;8.598;2023-07-22T08:54:25;21.30;92.80
6666;DHT22;3369;49.906;8.598;2023-07-22T08:56:51;21.30;91.90
6666;DHT22;3369;49.906;8.598;2023-07-22T08:59:19;21.20;92.10
6666;DHT22;3369;49.906;8.598;2023-07-22T09:01:47;21.10;91.30
6666;DHT22;3369;49.906;8.598;2023-07-22T09:04:13;21.10;91.40
6666;DHT22;3369;49.906;8.598;2023-07-22T09:06:39;21.10;91.80
6666;DHT22;3369;49.906;8.598;2023-07-22T09:09:07;21.00;92.00
6666;DHT22;3369;49.906;8.598;2023-07-22T09:11:34;21.10;92.40
6666;DHT22;3369;49.906;8.598;2023-07-22T09:14:02;21.20;92.50
6666;DHT22;3369;49.906;8.598;2023-07-22T09:16:28;21.30;92.10
6666;DHT22;3369;49.906;8.598;2023-07-22T09:18:57;21.50;92.40
6666;DHT22;3369;49.906;8.598;2023-07-22T09:21:22;21.70;92.00
6666;DHT22;3369;49.906;8.598;2023-07-22T09:23:48;21.80;92.00
6666;DHT22;3369;49.906;8.598;2023-07-22T09:26:17;21.80;91.90
6666;DHT22;3369;49.906;8.598;2023-07-22T09:28:57;21.80;91.90
6666;DHT22;3369;49.906;8.598;2023-07-22T09:31:25;21.90;91.50
6666;DHT22;3369;49.906;8.598;2023-07-22T09:33:52;22.00;91.30
6666;DHT22;3369;49.906;8.598;2023-07-22T09:36:19;22.20;91.90
6666;DHT22;3369;49.906;8.598;2023-07-22T09:38:51;22.20;91.30
6666;DHT22;3369;49.906;8.598;2023-07-22T09:41:27;22.20;91.50
6666;DHT22;3369;49.906;8.598;2023-07-22T09:43:53;22.10;91.40
6666;DHT22;3369;49.906;8.598;2023-07-22T09:46:18;22.10;91.40
6666;DHT22;3369;49.906;8.598;2023-07-22T09:48:46;22.00;91.50
6666;DHT22;3369;49.906;8.598;2023-07-22T09:51:16;21.90;90.40
6666;DHT22;3369;49.906;8.598;2023-07-22T09:53:58;21.80;88.10
6666;DHT22;3369;49.906;8.598;2023-07-22T09:56:24;21.80;88.40
6666;DHT22;3369;49.906;8.598;2023-07-22T09:58:51;21.70;89.20
6666;DHT22;3369;49.906;8.598;2023-07-22T10:01:19;21.70;90.10
6666;DHT22;3369;49.906;8.598;2023-07-22T10:03:46;21.70;89.00
6666;DHT22;3369;49.906;8.598;2023-07-22T10:06:12;21.70;89.20
6666;DHT22;3369;49.906;8.598;2023-07-22T10:08:38;21.70;89.50
6666;DHT22;3369;49.906;8.598;2023-07-22T10:11:05;21.70;90.00
6666;DHT22;3369;49.906;8.598;2023-07-22T10:13:33;21.80;90.00
6666;DHT22;3369;49.906;8.598;2023-07-22T10:15:59;21.80;90.00
6666;DHT22;3369;49.906;8.598;2023-07-22T10:18:26;21.70;90.00
6666;DHT22;3369;49.906;8.598;2023-07-22T10:20:52;21.70;90.00
6666;DHT22;3369;49.906;8.598;2023-07-22T10:23:18;21.70;89.20
6666;DHT22;3369;49.906;8.598;2023-07-22T10:25:46;21.70;89.40
6666;DHT22;3369;49.906;8.598;2023-07-22T10:28:13;21.70;89.30
6666;DHT22;3369;49.906;8.598;2023-07-22T10:30:40;21.70;89.30
6666;DHT22;3369;49.906;8.598;2023-07-22T10:33:05;21.70;89.30
6666;DHT22;3369;49.906;8.598;2023-07-22T10:38:13;21.80;90.00
6666;DHT22;3369;49.906;8.598;2023-07-22T10:40:50;22.00;90.10
6666;DHT22;3369;49.906;8.598;2023-07-22T10:43:18;22.30;89.20
6666;DHT22;3369;49.906;8.598;2023-07-22T10:45:53;22.50;87.60
6666;DHT22;3369;49.906;8.598;2023-07-22T10:48:19;22.60;88.00
6666;DHT22;3369;49.906;8.598;2023-07-22T10:50:48;22.70;86.50
6666;DHT22;3369;49.906;8.598;2023-07-22T10:56:14;22.60;87.00
6666;DHT22;3369;49.906;8.598;2023-07-22T11:14:52;22.60;86.40
6666;DHT22;3369;49.906;8.598;2023-07-22T11:17:28;22.80;85.50
6666;DHT22;3369;49.906;8.598;2023-07-22T11:19:58;23.00;85.00
6666;DHT22;3369;49.906;8.598;2023-07-22T11:22:24;23.10;84.80
6666;DHT22;3369;49.906;8.598;2023-07-22T11:24:49;23.10;84.00
6666;DHT22;3369;49.906;8.598;2023-07-22T11:27:15;23.10;84.50
6666;DHT22;3369;49.906;8.598;2023-07-22T11:29:41;23.20;82.80
6666;DHT22;3369;49.906;8.598;2023-07-22T11:32:14;23.10;82.60
6666;DHT22;3369;49.906;8.598;2023-07-22T11:34:42;23.00;82.40
6666;DHT22;3369;49.906;8.598;2023-07-22T11:37:10;22.90;82.40
6666;DHT22;3369;49.906;8.598;2023-07-22T11:39:35;22.80;82.60
6666;DHT22;3369;49.906;8.598;2023-07-22T11:42:03;22.80;83.40
6666;DHT22;3369;49.906;8.598;2023-07-22T11:44:30;22.80;83.70
6666;DHT22;3369;49.906;8.598;2023-07-22T11:47:03;22.90;83.70
6666;DHT22;3369;49.906;8.598;2023-07-22T11:49:39;22.90;83.30
6666;DHT22;3369;49.906;8.598;2023-07-22T11:52:07;22.90;82.80
6666;DHT22;3369;49.906;8.598;2023-07-22T11:54:34;23.00;83.00
6666;DHT22;3369;49.906;8.598;2023-07-22T11:57:22;23.00;83.00
6666;DHT22;3369;49.906;8.598;2023-07-22T11:59:53;23.00;82.70
6666;DHT22;3369;49.906;8.598;2023-07-22T12:02:21;23.00;82.70
6666;DHT22;3369;49.906;8.598;2023-07-22T12:05:02;23.00;83.00
6666;DHT22;3369;49.906;8.598;2023-07-22T12:07:36;23.00;82.90
6666;DHT22;3369;49.906;8.598;2023-07-22T12:10:07;23.10;82.80
6666;DHT22;3369;49.906;8.598;2023-07-22T12:12:53;23.20;83.10
6666;DHT22;3369;49.906;8.598;2023-07-22T12:15:20;23.30;82.20
6666;DHT22;3369;49.906;8.598;2023-07-22T12:17:58;23.30;82.30
6666;DHT22;3369;49.906;8.598;2023-07-22T12:20:29;23.50;81.70
6666;DHT22;3369;49.906;8.598;2023-07-22T12:22:55;23.60;81.20
6666;DHT22;3369;49.906;8.598;2023-07-22T12:25:21;23.80;81.40
6666;DHT22;3369;49.906;8.598;2023-07-22T12:27:47;23.90;81.70
6666;DHT22;3369;49.906;8.598;2023-07-22T12:30:12;24.00;81.20
6666;DHT22;3369;49.906;8.598;2023-07-22T12:32:38;24.00;79.60
6666;DHT22;3369;49.906;8.598;2023-07-22T12:35:05;24.10;78.00
6666;DHT22;3369;49.906;8.598;2023-07-22T12:37:30;24.20;79.60
6666;DHT22;3369;49.906;8.598;2023-07-22T12:39:56;24.20;79.10
6666;DHT22;3369;49.906;8.598;2023-07-22T12:42:22;24.30;78.40
6666;DHT22;3369;49.906;8.598;2023-07-22T12:44:48;24.20;75.20
6666;DHT22;3369;49.906;8.598;2023-07-22T12:47:14;24.30;75.50
6666;DHT22;3369;49.906;8.598;2023-07-22T12:49:39;24.30;75.30
6666;DHT22;3369;49.906;8.598;2023-07-22T12:52:05;24.40;75.00
6666;DHT22;3369;49.906;8.598;2023-07-22T12:54:34;24.50;73.60
6666;DHT22;3369;49.906;8.598;2023-07-22T12:57:00;24.50;73.80
6666;DHT22;3369;49.906;8.598;2023-07-22T12:59:26;24.40;72.80
6666;DHT22;3369;49.906;8.598;2023-07-22T13:01:51;24.30;72.30
6666;DHT22;3369;49.906;8.598;2023-07-22T13:04:17;24.30;73.00
6666;DHT22;3369;49.906;8.598;2023-07-22T13:06:43;24.30;72.00
6666;DHT22;3369;49.906;8.598;2023-07-22T13:09:08;24.20;70.10
6666;DHT22;3369;49.906;8.598;2023-07-22T13:11:35;24.10;71.10
6666;DHT22;3369;49.906;8.598;2023-07-22T13:14:01;24.10;71.20
6666;DHT22;3369;49.906;8.598;2023-07-22T13:16:26;24.20;73.20
6666;DHT22;3369;49.906;8.598;2023-07-22T13:18:52;24.40;71.20
6666;DHT22;3369;49.906;8.598;2023-07-22T13:21:17;24.50;71.30
6666;DHT22;3369;49.906;8.598;2023-07-22T13:23:43;24.60;70.70
6666;DHT22;3369;49.906;8.598;2023-07-22T13:26:09;24.60;69.40
6666;DHT22;3369;49.906;8.598;2023-07-22T13:28:34;24.50;69.30
6666;DHT22;3369;49.906;8.598;2023-07-22T13:31:00;24.50;69.00
6666;DHT22;3369;49.906;8.598;2023-07-22T13:33:25;24.50;69.20
6666;DHT22;3369;49.906;8.598;2023-07-22T13:35:51;24.50;69.00
6666;DHT22;3369;49.906;8.598;2023-07-22T13:38:17;24.40;68.80
6666;DHT22;3369;49.906;8.598;2023-07-22T13:40:42;24.40;69.10
6666;DHT22;3369;49.906;8.598;2023-07-22T13:43:08;24.50;69.30
6666;DHT22;3369;49.906;8.598;2023-07-22T13:45:35;24.50;69.00
6666;DHT22;3369;49.906;8.598;2023-07-22T13:48:00;24.60;68.00
6666;DHT22;3369;49.906;8.598;2023-07-22T13:50:26;24.50;67.40
6666;DHT22;3369;49.906;8.598;2023-07-22T13:52:52;24.50;67.60
6666;DHT22;3369;49.906;8.598;2023-07-22T13:55:18;24.50;68.10
6666;DHT22;3369;49.906;8.598;2023-07-22T13:57:44;24.50;68.30
6666;DHT22;3369;49.906;8.598;2023-07-22T14:00:09;24.50;67.60
6666;DHT22;3369;49.906;8.598;2023-07-22T14:02:37;24.50;68.20
6666;DHT22;3369;49.906;8.598;2023-07-22T14:05:03;24.60;67.70
6666;DHT22;3369;49.906;8.598;2023-07-22T14:07:29;24.70;66.50
6666;DHT22;3369;49.906;8.598;2023-07-22T14:09:55;24.80;66.70
6666;DHT22;3369;49.906;8.598;2023-07-22T14:12:20;24.80;66.80
6666;DHT22;3369;49.906;8.598;2023-07-22T14:14:46;24.80;67.20
6666;DHT22;3369;49.906;8.598;2023-07-22T14:17:11;24.70;67.20
6666;DHT22;3369;49.906;8.598;2023-07-22T14:19:37;24.80;66.70
6666;DHT22;3369;49.906;8.598;2023-07-22T14:22:03;24.80;65.60
6666;DHT22;3369;49.906;8.598;2023-07-22T14:24:29;24.70;65.70
6666;DHT22;3369;49.906;8.598;2023-07-22T14:26:55;24.70;65.80
6666;DHT22;3369;49.906;8.598;2023-07-22T14:29:21;24.70;65.40
6666;DHT22;3369;49.906;8.598;2023-07-22T14:31:47;24.80;64.50
6666;DHT22;3369;49.906;8.598;2023-07-22T14:34:12;24.80;65.10
6666;DHT22;3369;49.906;8.598;2023-07-22T14:36:38;24.80;65.10
6666;DHT22;3369;49.906;8.598;2023-07-22T14:39:04;24.80;65.20
6666;DHT22;3369;49.906;8.598;2023-07-22T14:41:30;24.80;65.00
6666;DHT22;3369;49.906;8.598;2023-07-22T14:43:56;24.80;65.90
6666;DHT22;3369;49.906;8.598;2023-07-22T14:46:22;24.80;65.20
6666;DHT22;3369;49.906;8.598;2023-07-22T14:48:48;24.90;65.60
6666;DHT22;3369;49.906;8.598;2023-07-22T14:51:13;25.00;65.10
6666;DHT22;3369;49.906;8.598;2023-07-22T14:53:39;25.00;64.90
6666;DHT22;3369;49.906;8.598;2023-07-22T14:56:05;25.00;65.00
6666;DHT22;3369;49.906;8.598;2023-07-22T14:58:32;25.00;64.10
6666;DHT22;3369;49.906;8.598;2023-07-22T15:00:58;25.00;64.40
6666;DHT22;3369;49.906;8.598;2023-07-22T15:03:23;25.10;64.50
6666;DHT22;3369;49.906;8.598;2023-07-22T15:05:49;25.10;63.70
6666;DHT22;3369;49.906;8.598;2023-07-22T15:08:14;25.10;64.10
6666;DHT22;3369;49.906;8.598;2023-07-22T15:10:40;25.10;63.80
6666;DHT22;3369;49.906;8.598;2023-07-22T15:13:06;25.10;63.20
6666;DHT22;3369;49.906;8.598;2023-07-22T15:15:31;25.10;62.90
6666;DHT22;3369;49.906;8.598;2023-07-22T15:17:57;25.00;61.50
6666;DHT22;3369;49.906;8.598;2023-07-22T15:20:23;24.90;62.60
6666;DHT22;3369;49.906;8.598;2023-07-22T15:22:49;24.90;63.00
6666;DHT22;3369;49.906;8.598;2023-07-22T15:25:14;24.90;61.80
6666;DHT22;3369;49.906;8.598;2023-07-22T15:27:40;24.90;62.40
6666;DHT22;3369;49.906;8.598;2023-07-22T15:30:08;24.90;61.70
6666;DHT22;3369;49.906;8.598;2023-07-22T15:32:33;24.90;61.80
6666;DHT22;3369;49.906;8.598;2023-07-22T15:34:59;24.80;61.70
6666;DHT22;3369;49.906;8.598;2023-07-22T15:37:25;24.80;60.90
6666;DHT22;3369;49.906;8.598;2023-07-22T15:39:50;24.80;60.50
6666;DHT22;3369;49.906;8.598;2023-07-22T15:42:16;24.80;61.50
6666;DHT22;3369;49.906;8.598;2023-07-22T15:44:42;24.80;60.30
6666;DHT22;3369;49.906;8.598;2023-07-22T15:47:08;24.80;60.20
6666;DHT22;3369;49.906;8.598;2023-07-22T15:49:33;24.80;60.90
6666;DHT22;3369;49.906;8.598;2023-07-22T15:51:59;24.80;59.80
6666;DHT22;3369;49.906;8.598;2023-07-22T15:54:25;24.80;59.80
6666;DHT22;3369;49.906;8.598;2023-07-22T15:56:50;24.70;59.40
6666;DHT22;3369;49.906;8.598;2023-07-22T15:59:16;24.70;59.50
6666;DHT22;3369;49.906;8.598;2023-07-22T16:01:41;24.60;60.00
6666;DHT22;3369;49.906;8.598;2023-07-22T16:04:08;24.60;60.20
6666;DHT22;3369;49.906;8.598;2023-07-22T16:06:33;24.60;60.00
6666;DHT22;3369;49.906;8.598;2023-07-22T16:08:59;24.70;60.50
6666;DHT22;3369;49.906;8.598;2023-07-22T16:11:25;24.70;60.10
6666;DHT22;3369;49.906;8.598;2023-07-22T16:13:50;24.80;60.10
6666;DHT22;3369;49.906;8.598;2023-07-22T16:16:16;24.80;59.80
6666;DHT22;3369;49.906;8.598;2023-07-22T16:18:42;24.80;60.00